Time;durP1;ratioP1;P1;durP2;ratioP2;P2;SDS_P1;SDS_P2;PMS_P1;PMS_P2;Temp;Humidity;BMP_temperature;BMP_pressure;BME280_temperature;BME280_humidity;BME280_pressure;Samples;Min_cycle;Max_cycle;Signal;HPM_P1;HPM_P2
2021/10/15 00:01:11;;;;;;;6.40;4.30;;;;;;;7.72;88.31;99932.16;5068788;28;20334;-39
2021/10/15 00:03:36;;;;;;;5.57;4.10;;;;;;;7.97;88.05;99932.75;5052882;28;20028;-39
2021/10/15 00:06:02;;;;;;;6.22;4.07;;;;;;;7.90;87.68;99936.31;5053327;28;20029;-40
2021/10/15 00:08:27;;;;;;;6.00;4.32;;;;;;;7.85;88.02;99938.69;5052729;28;20039;-39
2021/10/15 00:10:53;;;;;;;5.68;4.30;;;;;;;7.76;88.68;99933.44;5052888;28;20036;-40
2021/10/15 00:13:18;;;;;;;5.97;3.80;;;;;;;7.99;87.44;99940.53;5052328;28;20040;-39
2021/10/15 00:15:44;;;;;;;5.20;3.50;;;;;;;7.93;87.63;99934.13;5052710;28;20039;-40
2021/10/15 00:18:09;;;;;;;4.25;3.03;;;;;;;7.81;88.01;99936.41;5052856;28;20059;-39
2021/10/15 00:20:35;;;;;;;3.58;2.97;;;;;;;7.82;87.57;99937.22;5052447;28;20029;-40
2021/10/15 00:23:00;;;;;;;4.45;2.85;;;;;;;7.97;87.15;99934.56;5052870;28;20466;-40
2021/10/15 00:25:26;;;;;;;5.20;3.10;;;;;;;7.94;87.63;99933.13;5052641;28;20020;-40
2021/10/15 00:27:51;;;;;;;4.45;2.47;;;;;;;7.92;87.41;99931.66;5052183;28;20453;-40
2021/10/15 00:30:16;;;;;;;4.40;3.13;;;;;;;7.89;87.62;99929.38;5052540;28;20025;-41
2021/10/15 00:32:42;;;;;;;5.63;2.83;;;;;;;7.88;87.18;99922.41;5052188;28;20033;-40
2021/10/15 00:35:08;;;;;;;5.68;3.08;;;;;;;7.85;87.44;99920.16;5052116;28;20021;-40
2021/10/15 00:37:33;;;;;;;4.57;2.85;;;;;;;7.81;87.14;99925.78;5052339;28;20032;-39
2021/10/15 00:39:58;;;;;;;4.45;2.97;;;;;;;7.70;87.86;99917.47;5052555;28;20029;-39
2021/10/15 00:42:24;;;;;;;4.22;2.80;;;;;;;7.63;88.96;99917.34;5052143;28;20039;-39
2021/10/15 00:44:49;;;;;;;4.65;3.17;;;;;;;7.95;87.27;99920.69;5052422;28;20021;-39
2021/10/15 00:47:15;;;;;;;4.20;2.83;;;;;;;7.97;87.12;99927.44;5052205;28;20467;-39
2021/10/15 00:49:40;;;;;;;4.18;3.10;;;;;;;7.93;87.76;99920.88;5052028;28;20098;-39
2021/10/15 00:52:08;;;;;;;4.03;2.80;;;;;;;7.73;88.24;99894.09;5052062;28;20032;-39
2021/10/15 00:54:34;;;;;;;5.05;3.50;;;;;;;7.89;89.00;99921.44;5050997;28;20040;-39
2021/10/15 00:56:59;;;;;;;4.57;3.55;;;;;;;7.78;89.35;99914.72;5052614;28;20029;-40
2021/10/15 00:59:25;;;;;;;5.60;3.80;;;;;;;7.89;88.44;99911.63;5051158;28;20025;-40
2021/10/15 01:01:50;;;;;;;5.45;4.00;;;;;;;8.06;87.86;99906.16;5052191;28;20029;-39
2021/10/15 01:04:16;;;;;;;6.82;4.68;;;;;;;8.05;88.04;99900.03;5052497;28;20032;-39
2021/10/15 01:06:41;;;;;;;6.53;4.43;;;;;;;8.00;88.38;99905.06;5052102;28;20542;-40
2021/10/15 01:09:07;;;;;;;8.20;4.68;;;;;;;8.07;87.76;99905.16;5052192;28;20036;-40
2021/10/15 01:11:32;;;;;;;6.15;4.60;;;;;;;8.26;87.93;99898.47;5052034;28;20029;-40
2021/10/15 01:13:58;;;;;;;5.93;4.65;;;;;;;8.10;88.57;99894.19;5051292;28;20032;-39
2021/10/15 01:16:28;;;;;;;7.40;4.53;;;;;;;8.07;88.25;99889.25;5034354;28;20036;-40
2021/10/15 01:18:56;;;;;;;5.93;4.63;;;;;;;7.97;89.15;99879.75;5051944;28;20128;-40
2021/10/15 01:21:21;;;;;;;6.97;4.80;;;;;;;8.01;89.12;99885.50;5052050;28;20492;-41
2021/10/15 01:23:47;;;;;;;6.90;4.78;;;;;;;7.83;89.16;99856.72;5050733;28;20507;-40
2021/10/15 01:26:12;;;;;;;6.32;4.65;;;;;;;8.06;88.74;99893.72;5051505;28;20413;-40
2021/10/15 01:28:38;;;;;;;5.90;4.60;;;;;;;8.10;88.70;99887.06;5051797;28;20021;-40
2021/10/15 01:31:03;;;;;;;7.00;5.20;;;;;;;8.05;89.04;99886.78;5051898;28;20144;-40
2021/10/15 01:33:29;;;;;;;7.95;5.60;;;;;;;8.22;88.03;99892.72;5051107;28;20029;-40
2021/10/15 01:35:54;;;;;;;7.47;5.50;;;;;;;8.13;88.42;99891.16;5051501;28;20021;-38
2021/10/15 01:38:20;;;;;;;7.93;5.22;;;;;;;8.19;87.81;99883.31;5051315;28;20116;-40
2021/10/15 01:40:45;;;;;;;7.43;4.82;;;;;;;8.23;87.16;99881.13;5051111;28;20033;-40
2021/10/15 01:43:16;;;;;;;7.18;4.85;;;;;;;8.17;87.37;99872.06;5050941;28;20025;-40
2021/10/15 01:45:41;;;;;;;6.68;4.68;;;;;;;7.94;88.68;99872.19;5051560;28;20101;-40
2021/10/15 01:48:07;;;;;;;6.18;4.35;;;;;;;8.00;88.61;99863.50;5051474;28;20490;-40
2021/10/15 01:50:32;;;;;;;6.93;4.60;;;;;;;7.99;88.23;99861.81;5051461;28;20025;-40
2021/10/15 01:52:58;;;;;;;6.72;4.60;;;;;;;7.95;89.58;99875.63;5050990;28;20032;-40
2021/10/15 01:55:23;;;;;;;6.00;4.43;;;;;;;8.03;88.73;99872.88;5049596;28;20456;-40
2021/10/15 01:57:48;;;;;;;7.45;4.15;;;;;;;7.95;88.95;99859.75;5050829;28;20039;-40
2021/10/15 02:00:15;;;;;;;7.20;4.43;;;;;;;8.12;88.33;99861.19;5050952;28;20029;-40
2021/10/15 02:02:41;;;;;;;8.60;4.78;;;;;;;8.16;88.44;99862.44;5050925;28;20078;-40
2021/10/15 02:05:07;;;;;;;6.82;4.63;;;;;;;8.15;87.51;99870.63;5051304;28;20025;-40
2021/10/15 02:07:33;;;;;;;7.72;4.68;;;;;;;8.05;88.35;99862.91;5049577;28;20021;-40
2021/10/15 02:09:58;;;;;;;6.75;4.07;;;;;;;7.97;88.68;99855.06;5050350;28;20021;-39
2021/10/15 02:12:24;;;;;;;5.95;4.25;;;;;;;8.18;87.77;99868.41;5050811;28;20059;-39
2021/10/15 02:14:49;;;;;;;7.03;4.60;;;;;;;8.07;88.24;99871.50;5050803;28;20029;-39
2021/10/15 02:17:15;;;;;;;7.03;4.47;;;;;;;8.08;88.91;99862.56;5051205;28;20025;-40
2021/10/15 02:19:40;;;;;;;7.00;4.53;;;;;;;8.10;89.05;99862.38;5050878;28;20491;-39
2021/10/15 02:22:06;;;;;;;6.68;4.38;;;;;;;8.19;87.65;99851.50;5050793;28;20025;-40
2021/10/15 02:24:31;;;;;;;7.70;4.75;;;;;;;8.18;88.25;99851.69;5050597;28;20028;-38
2021/10/15 02:26:56;;;;;;;10.07;5.05;;;;;;;8.09;88.36;99861.56;5049828;28;20020;-39
2021/10/15 02:29:22;;;;;;;6.90;4.75;;;;;;;8.31;87.78;99859.78;5050630;28;20024;-40
2021/10/15 02:31:47;;;;;;;7.53;4.60;;;;;;;8.26;88.08;99861.34;5050541;28;20067;-39
2021/10/15 02:34:14;;;;;;;8.57;5.22;;;;;;;8.20;88.43;99853.13;5050402;28;20033;-39
2021/10/15 02:36:39;;;;;;;7.75;5.10;;;;;;;8.14;88.57;99855.72;5056145;28;20063;-39
2021/10/15 02:39:05;;;;;;;7.75;4.97;;;;;;;8.16;88.80;99856.34;5057246;28;20029;-39
2021/10/15 02:41:30;;;;;;;7.75;4.93;;;;;;;8.19;88.34;99862.09;5057242;28;20021;-39
2021/10/15 02:43:56;;;;;;;8.10;5.30;;;;;;;8.15;88.78;99855.53;5057521;28;20017;-39
2021/10/15 02:46:21;;;;;;;8.50;5.72;;;;;;;8.09;89.39;99861.56;5057525;28;20447;-39
2021/10/15 02:48:47;;;;;;;7.85;5.45;;;;;;;8.27;88.28;99865.66;5057546;28;20037;-39
2021/10/15 02:51:12;;;;;;;7.20;5.10;;;;;;;8.23;88.31;99862.56;5057215;28;20036;-39
2021/10/15 02:53:38;;;;;;;7.97;5.50;;;;;;;8.23;88.41;99860.72;5057247;28;20013;-39
2021/10/15 02:56:04;;;;;;;7.68;5.10;;;;;;;8.11;89.06;99848.97;5057308;28;20013;-39
2021/10/15 02:58:30;;;;;;;7.35;4.78;;;;;;;8.32;88.02;99852.66;5057252;28;20075;-39
2021/10/15 03:00:55;;;;;;;8.13;5.20;;;;;;;8.30;88.49;99852.84;5057114;28;20029;-39
2021/10/15 03:03:21;;;;;;;6.75;4.80;;;;;;;8.29;88.27;99866.28;5056989;28;20318;-39
2021/10/15 03:05:46;;;;;;;7.15;5.00;;;;;;;8.32;87.86;99857.94;5057274;28;20017;-39
2021/10/15 03:08:12;;;;;;;6.38;4.88;;;;;;;8.30;87.27;99852.84;5057082;28;20032;-39
2021/10/15 03:10:37;;;;;;;5.93;4.35;;;;;;;8.36;88.22;99859.25;5055767;28;20025;-39
2021/10/15 03:13:03;;;;;;;7.45;5.30;;;;;;;8.21;88.66;99848.66;5057550;28;20032;-39
2021/10/15 03:15:28;;;;;;;6.85;5.18;;;;;;;8.25;88.25;99841.16;5056963;28;20555;-39
2021/10/15 03:17:54;;;;;;;8.05;5.10;;;;;;;8.30;88.23;99836.09;5057013;28;20025;-39
2021/10/15 03:20:20;;;;;;;7.40;4.88;;;;;;;8.35;88.26;99839.03;5057144;28;20483;-39
2021/10/15 03:22:45;;;;;;;6.45;4.68;;;;;;;8.20;88.71;99831.09;5057365;28;20066;-39
2021/10/15 03:25:10;;;;;;;6.93;4.30;;;;;;;8.01;89.50;99833.34;5057037;28;20492;-39
2021/10/15 03:27:36;;;;;;;8.48;4.97;;;;;;;8.26;88.64;99840.13;5056531;28;20373;-39
2021/10/15 03:30:02;;;;;;;5.57;4.35;;;;;;;8.17;88.61;99837.59;5056844;28;20028;-39
2021/10/15 03:32:27;;;;;;;5.47;4.13;;;;;;;8.16;89.23;99835.94;5056206;28;20037;-40
2021/10/15 03:34:53;;;;;;;5.70;4.13;;;;;;;8.34;88.88;99834.72;5056970;28;20048;-40
2021/10/15 03:37:18;;;;;;;6.90;4.70;;;;;;;8.38;87.85;99826.22;5056411;28;20024;-39
2021/10/15 03:39:44;;;;;;;6.45;4.70;;;;;;;8.26;88.38;99830.34;5056459;28;20036;-39
2021/10/15 03:42:09;;;;;;;6.38;4.53;;;;;;;8.25;88.82;99820.78;5056703;28;20028;-39
2021/10/15 03:44:35;;;;;;;6.15;4.28;;;;;;;8.34;87.92;99819.66;5056782;28;20531;-39
2021/10/15 03:47:00;;;;;;;6.60;4.63;;;;;;;8.32;88.32;99818.19;5054813;28;20025;-39
2021/10/15 03:49:26;;;;;;;7.45;4.75;;;;;;;8.29;89.02;99816.72;5053312;28;20043;-39
2021/10/15 03:51:51;;;;;;;6.40;4.57;;;;;;;8.24;88.93;99829.72;5054299;28;20028;-38
2021/10/15 03:54:16;;;;;;;7.93;4.90;;;;;;;8.33;88.80;99830.44;5073432;28;20021;-39
2021/10/15 03:56:42;;;;;;;8.50;5.10;;;;;;;8.30;88.86;99822.84;5073508;28;20400;-39
2021/10/15 03:59:07;;;;;;;7.80;5.05;;;;;;;8.36;88.32;99822.13;5073185;28;20021;-40
2021/10/15 04:01:33;;;;;;;6.50;4.70;;;;;;;8.34;88.93;99822.31;5072731;28;20365;-40
2021/10/15 04:03:58;;;;;;;6.75;4.53;;;;;;;8.36;88.82;99816.81;5072837;28;20074;-40
2021/10/15 04:06:24;;;;;;;7.63;5.10;;;;;;;8.32;88.68;99818.19;5049773;28;20106;-39
2021/10/15 04:08:49;;;;;;;7.13;4.80;;;;;;;8.32;89.70;99818.19;5038113;28;20025;-39
2021/10/15 04:11:16;;;;;;;8.55;5.75;;;;;;;9.56;94.53;99817.88;5032870;28;20083;-51
2021/10/15 04:13:41;;;;;;;8.05;5.15;;;;;;;9.33;86.19;99820.81;5032857;28;20022;-51
2021/10/15 04:16:07;;;;;;;25.02;15.02;;;;;;;8.98;86.66;99818.88;5032899;28;20032;-49
2021/10/15 04:18:32;;;;;;;39.13;22.75;;;;;;;8.98;85.59;99818.06;5032662;28;20385;-50
2021/10/15 04:20:58;;;;;;;32.25;17.85;;;;;;;8.81;86.63;99820.16;5032633;28;20072;-51
2021/10/15 04:23:23;;;;;;;8.95;6.07;;;;;;;8.55;88.08;99813.59;5032798;28;20026;-53
2021/10/15 04:25:49;;;;;;;6.90;5.47;;;;;;;8.47;88.53;99808.38;5041437;28;20032;-50
2021/10/15 04:28:16;;;;;;;7.40;5.70;;;;;;;8.33;89.56;99812.69;5052805;28;20036;-50
2021/10/15 04:30:42;;;;;;;7.88;5.45;;;;;;;8.41;88.77;99819.72;5052498;28;20048;-51
2021/10/15 04:33:08;;;;;;;9.27;6.10;;;;;;;8.50;89.60;99820.47;5052271;28;20115;-53
2021/10/15 04:35:33;;;;;;;9.05;6.20;;;;;;;8.54;92.19;99827.03;5042965;28;20025;-52
2021/10/15 04:37:58;;;;;;;9.10;6.05;;;;;;;8.48;89.68;99833.09;5040994;28;20064;-50
2021/10/15 04:40:24;;;;;;;9.90;6.30;;;;;;;8.53;89.89;99833.31;5050396;28;20036;-51
2021/10/15 04:42:49;;;;;;;10.63;6.85;;;;;;;8.64;89.08;99834.69;5050963;28;20028;-51
2021/10/15 04:45:15;;;;;;;13.27;7.47;;;;;;;8.76;88.00;99827.88;5050758;28;20039;-52
2021/10/15 04:47:40;;;;;;;9.85;6.82;;;;;;;8.68;89.58;99822.66;5049476;28;20024;-49
2021/10/15 04:50:06;;;;;;;10.88;7.00;;;;;;;8.61;89.04;99826.09;5050035;28;20678;-51
2021/10/15 04:52:31;;;;;;;10.27;7.07;;;;;;;8.72;88.25;99835.38;5050200;28;20048;-51
2021/10/15 04:54:57;;;;;;;33.58;19.20;;;;;;;8.66;88.75;99827.34;5050094;28;20025;-51
2021/10/15 04:57:22;;;;;;;25.77;14.73;;;;;;;8.87;88.74;99827.38;5050085;28;20048;-51
2021/10/15 04:59:48;;;;;;;10.20;7.57;;;;;;;8.79;88.54;99820.31;5050103;28;20495;-51
2021/10/15 05:02:13;;;;;;;10.05;6.57;;;;;;;8.80;88.86;99815.88;5050143;28;20537;-52
2021/10/15 05:04:40;;;;;;;8.85;6.10;;;;;;;8.81;88.30;99822.81;5050572;28;20381;-55
2021/10/15 05:07:06;;;;;;;10.13;6.75;;;;;;;8.77;88.46;99829.50;5050443;28;20087;-53
2021/10/15 05:11:57;;;;;;;9.18;6.18;;;;;;;8.60;89.66;99827.13;5051920;28;20033;-54
2021/10/15 05:14:23;;;;;;;7.88;5.38;;;;;;;8.72;89.42;99819.47;5049909;28;20075;-52
2021/10/15 05:16:48;;;;;;;38.28;30.75;;;;;;;8.73;89.59;99831.72;5051277;28;20083;-51
2021/10/15 05:19:14;;;;;;;10.38;7.07;;;;;;;8.58;89.19;99805.22;5050974;28;20459;-50
2021/10/15 05:21:39;;;;;;;8.57;5.90;;;;;;;8.66;90.00;99824.69;5049715;28;20185;-54
2021/10/15 05:24:05;;;;;;;8.35;5.85;;;;;;;8.62;89.60;99829.56;5051334;28;20071;-49
2021/10/15 05:26:30;;;;;;;8.25;6.13;;;;;;;8.70;89.16;99826.81;5051045;28;20029;-52
2021/10/15 05:28:56;;;;;;;7.60;5.63;;;;;;;8.75;88.68;99834.19;5050875;28;20501;-50
2021/10/15 05:31:21;;;;;;;7.32;5.53;;;;;;;8.91;88.45;99838.41;5050648;28;20134;-49
2021/10/15 05:33:47;;;;;;;10.13;5.78;;;;;;;8.83;88.49;99830.56;5050238;28;20017;-50
2021/10/15 05:36:12;;;;;;;8.40;5.57;;;;;;;8.93;88.47;99826.59;5050719;28;20029;-50
2021/10/15 05:38:38;;;;;;;8.18;5.75;;;;;;;8.86;88.00;99825.72;5050797;28;20595;-50
2021/10/15 05:41:03;;;;;;;8.68;6.32;;;;;;;8.55;87.73;99781.75;5049744;28;20028;-50
2021/10/15 05:43:28;;;;;;;8.40;5.40;;;;;;;8.81;88.11;99814.84;5050788;28;20503;-51
2021/10/15 05:45:54;;;;;;;7.32;5.32;;;;;;;8.89;87.57;99814.72;5050778;28;20429;-51
2021/10/15 05:48:19;;;;;;;8.35;5.78;;;;;;;8.88;88.31;99820.22;5050845;28;20028;-53
2021/10/15 05:50:45;;;;;;;7.45;5.30;;;;;;;8.80;88.59;99829.13;5050718;28;20029;-52
2021/10/15 05:53:14;;;;;;;15.90;9.57;;;;;;;8.84;89.87;99829.59;5050592;28;20025;-50
2021/10/15 05:56:16;;;;;;;59.80;33.50;;;;;;;8.97;88.90;99835.00;5050551;28;20185;-50
2021/10/15 06:01:12;;;;;;;10.68;6.97;;;;;;;9.04;88.83;99825.25;5050605;28;20086;-49
2021/10/15 06:03:39;;;;;;;9.77;5.47;;;;;;;9.20;87.77;99822.31;5050720;28;20021;-49
2021/10/15 06:14:32;;;;;;;16.27;10.07;;;;;;;9.30;86.61;99816.69;5049289;28;20098;-50
2021/10/15 06:17:05;;;;;;;14.80;9.15;;;;;;;9.25;86.80;99813.78;5050576;28;20104;-52
2021/10/15 06:19:35;;;;;;;9.50;6.53;;;;;;;9.09;88.40;99824.69;5050392;28;20054;-52
2021/10/15 06:22:00;;;;;;;10.93;7.22;;;;;;;9.22;88.43;99814.16;5049801;28;20516;-52
2021/10/15 06:24:25;;;;;;;9.73;6.40;;;;;;;9.41;87.58;99815.34;5050610;28;20035;-49
2021/10/15 06:26:51;;;;;;;9.30;6.03;;;;;;;9.32;87.21;99827.13;5048948;28;20507;-51
2021/10/15 06:29:16;;;;;;;9.13;6.22;;;;;;;9.31;87.60;99810.38;5050268;28;20028;-51
2021/10/15 06:31:42;;;;;;;9.63;6.13;;;;;;;9.43;87.40;99812.50;5049910;28;20055;-50
2021/10/15 06:34:07;;;;;;;8.75;6.30;;;;;;;9.38;87.15;99824.50;5050163;28;20028;-49
2021/10/15 06:36:33;;;;;;;10.18;6.80;;;;;;;9.41;87.98;99839.25;5050269;28;20450;-49
2021/10/15 06:38:58;;;;;;;10.40;6.90;;;;;;;9.39;87.19;99842.09;5050200;28;20075;-51
2021/10/15 06:41:23;;;;;;;9.00;6.38;;;;;;;9.29;87.77;99838.94;5050193;28;20118;-49
2021/10/15 06:43:49;;;;;;;10.85;7.43;;;;;;;9.32;87.54;99835.09;5047906;28;20028;-52
2021/10/15 06:46:14;;;;;;;12.10;7.75;;;;;;;9.22;88.13;99835.41;5040067;28;20471;-51
2021/10/15 06:48:40;;;;;;;10.93;7.40;;;;;;;9.27;87.29;99842.78;5029696;28;20545;-50
2021/10/15 06:51:05;;;;;;;13.20;8.00;;;;;;;9.29;88.90;99827.47;5037234;28;20105;-51
2021/10/15 06:53:31;;;;;;;11.57;8.40;;;;;;;9.27;88.05;99826.84;5038245;28;20029;-51
2021/10/15 06:55:56;;;;;;;13.60;8.95;;;;;;;9.43;87.56;99831.09;5047629;28;20094;-52
2021/10/15 06:58:22;;;;;;;11.98;8.02;;;;;;;9.34;88.68;99825.09;5033931;28;20021;-53
2021/10/15 07:00:47;;;;;;;10.48;7.53;;;;;;;9.42;88.02;99829.44;5030627;28;20044;-54
2021/10/15 07:03:16;;;;;;;9.98;7.13;;;;;;;9.40;88.06;99826.97;5045290;28;20397;-53
2021/10/15 07:05:42;;;;;;;9.40;6.70;;;;;;;9.53;87.38;99844.84;5029981;28;20026;-51
2021/10/15 07:08:07;;;;;;;8.35;6.03;;;;;;;9.50;87.54;99846.06;5038379;28;20162;-53
2021/10/15 07:10:33;;;;;;;8.38;6.07;;;;;;;9.45;87.28;99850.31;5049639;28;20060;-52
2021/10/15 07:12:58;;;;;;;8.98;6.15;;;;;;;9.47;87.20;99854.41;5049305;28;20037;-51
2021/10/15 07:15:24;;;;;;;9.27;6.22;;;;;;;9.47;87.34;99857.06;5029818;28;20029;-53
2021/10/15 07:17:50;;;;;;;7.75;5.80;;;;;;;9.48;87.65;99863.19;5029991;28;20029;-52
2021/10/15 07:20:15;;;;;;;8.65;6.30;;;;;;;9.48;87.15;99853.41;5045920;28;20123;-54
2021/10/15 07:22:41;;;;;;;9.85;6.20;;;;;;;9.50;87.67;99851.38;5051238;28;20037;-55
2021/10/15 07:25:07;;;;;;;9.40;6.32;;;;;;;9.52;87.16;99851.16;5053593;28;20457;-54
2021/10/15 07:27:34;;;;;;;9.27;6.72;;;;;;;9.44;87.96;99848.66;5053771;28;20017;-54
2021/10/15 07:30:01;;;;;;;9.60;6.32;;;;;;;9.43;87.79;99836.41;5053670;28;20059;-51
2021/10/15 07:32:26;;;;;;;8.75;6.22;;;;;;;9.49;87.82;99838.28;5053308;28;20124;-51
2021/10/15 07:34:52;;;;;;;10.95;7.35;;;;;;;9.42;88.17;99824.13;5053177;28;20032;-53
2021/10/15 07:37:17;;;;;;;9.15;6.63;;;;;;;9.57;86.97;99820.31;5053241;28;20028;-49
2021/10/15 07:39:42;;;;;;;8.93;5.90;;;;;;;9.37;87.65;99804.28;5053331;28;20020;-51
2021/10/15 07:42:08;;;;;;;19.08;11.02;;;;;;;9.46;87.34;99799.66;5053244;28;20028;-51
2021/10/15 07:44:33;;;;;;;9.88;6.85;;;;;;;9.47;87.95;99801.28;5053293;28;20017;-50
2021/10/15 07:46:59;;;;;;;10.50;6.78;;;;;;;9.71;86.84;99799.97;5053074;28;20451;-52
2021/10/15 07:49:24;;;;;;;10.65;7.43;;;;;;;9.70;87.10;99805.50;5052976;28;20032;-50
2021/10/15 07:51:50;;;;;;;10.82;7.65;;;;;;;9.74;87.23;99804.06;5055101;28;20013;-52
2021/10/15 07:54:16;;;;;;;10.15;7.57;;;;;;;9.76;87.04;99794.06;5072739;28;20036;-49
2021/10/15 07:56:41;;;;;;;12.13;7.57;;;;;;;9.72;87.00;99783.00;5073103;28;20032;-49
2021/10/15 07:59:07;;;;;;;52.72;34.58;;;;;;;9.82;87.13;99792.47;5072689;28;20361;-39
2021/10/15 08:01:32;;;;;;;43.33;29.33;;;;;;;9.77;88.10;99807.16;5052469;28;20021;-39
2021/10/15 08:03:59;;;;;;;11.27;7.70;;;;;;;9.74;86.88;99809.41;5052413;28;20040;-39
2021/10/15 08:06:25;;;;;;;18.48;11.88;;;;;;;9.84;86.14;99804.53;5052461;28;20021;-39
2021/10/15 08:08:51;;;;;;;49.55;26.95;;;;;;;9.79;86.08;99804.31;5052286;28;20051;-40
2021/10/15 08:11:17;;;;;;;13.18;8.40;;;;;;;9.73;88.21;99799.78;5052659;28;20032;-39
2021/10/15 08:13:43;;;;;;;10.95;7.22;;;;;;;9.78;88.05;99800.81;5052414;28;20024;-39
2021/10/15 08:16:08;;;;;;;9.25;6.93;;;;;;;9.83;87.21;99802.09;5052287;28;20017;-40
2021/10/15 08:18:34;;;;;;;10.15;6.53;;;;;;;9.85;86.93;99797.41;5052178;28;20082;-40
2021/10/15 08:20:59;;;;;;;9.80;6.50;;;;;;;9.88;85.81;99799.63;5051874;28;20476;-40
2021/10/15 08:23:25;;;;;;;9.65;6.50;;;;;;;9.75;87.74;99797.75;5050911;28;20023;-39
2021/10/15 08:25:51;;;;;;;7.15;5.45;;;;;;;9.88;86.48;99789.84;5052215;28;20397;-40
2021/10/15 08:28:16;;;;;;;7.93;5.63;;;;;;;9.97;86.67;99801.94;5052255;28;20025;-39
2021/10/15 08:30:41;;;;;;;11.63;6.70;;;;;;;9.94;86.42;99804.19;5052073;28;20111;-39
2021/10/15 08:33:08;;;;;;;6.85;5.38;;;;;;;9.67;87.60;99801.41;5051611;28;20053;-52
2021/10/15 08:35:34;;;;;;;6.45;5.03;;;;;;;9.58;88.08;99802.56;5052653;28;20399;-39
2021/10/15 08:37:59;;;;;;;8.88;5.70;;;;;;;9.66;88.29;99797.09;5052188;28;20505;-39
2021/10/15 08:40:26;;;;;;;14.32;9.93;;;;;;;9.62;87.98;99803.81;5052519;28;20124;-39
2021/10/15 08:42:53;;;;;;;108.22;54.17;;;;;;;9.67;88.25;99803.22;5051980;28;20028;-39
2021/10/15 08:45:45;;;;;;;10.20;6.68;;;;;;;9.51;88.46;99805.16;5051936;28;20020;-39
2021/10/15 08:48:10;;;;;;;11.07;7.00;;;;;;;9.58;88.63;99799.91;5049679;28;20132;-39
2021/10/15 08:50:36;;;;;;;15.23;8.80;;;;;;;9.72;91.25;99790.16;5051943;28;20029;-39
2021/10/15 08:53:02;;;;;;;15.75;11.43;;;;;;;9.66;88.25;99799.75;5051805;28;20504;-40
2021/10/15 08:55:28;;;;;;;19.95;12.18;;;;;;;9.81;87.90;99799.63;5051071;28;20025;-39
2021/10/15 08:57:55;;;;;;;14.55;9.68;;;;;;;9.75;88.13;99800.41;5051623;28;20025;-39
2021/10/15 09:00:34;;;;;;;13.07;8.50;;;;;;;9.79;87.74;99812.28;5051492;28;20421;-39
2021/10/15 09:03:15;;;;;;;12.05;8.73;;;;;;;9.98;87.02;99821.38;5051612;28;20024;-39
2021/10/15 09:05:41;;;;;;;12.70;8.60;;;;;;;9.83;87.35;99820.69;5051063;28;20090;-39
2021/10/15 09:08:07;;;;;;;13.55;9.57;;;;;;;9.82;87.93;99816.38;5051165;28;20033;-39
2021/10/15 09:10:33;;;;;;;12.05;8.73;;;;;;;9.72;87.68;99809.59;5051307;28;20032;-39
2021/10/15 09:12:58;;;;;;;11.95;8.68;;;;;;;9.61;88.73;99815.44;5051776;28;20469;-39
2021/10/15 09:15:34;;;;;;;13.38;8.98;;;;;;;9.60;89.27;99800.53;5033272;28;20539;-39
2021/10/15 09:18:09;;;;;;;12.73;8.48;;;;;;;10.68;91.09;99807.91;5051843;28;20106;-41
2021/10/15 09:20:35;;;;;;;11.90;8.30;;;;;;;10.29;86.77;99820.88;5045198;28;20075;-52
2021/10/15 09:23:01;;;;;;;12.82;9.20;;;;;;;10.28;86.43;99821.06;5047264;28;20124;-51
2021/10/15 09:25:37;;;;;;;13.55;8.73;;;;;;;10.15;86.26;99829.84;5051130;28;20025;-51
2021/10/15 09:28:11;;;;;;;15.43;8.98;;;;;;;10.00;87.33;99827.31;5049629;28;20113;-51
2021/10/15 09:30:39;;;;;;;14.43;8.77;;;;;;;9.95;87.03;99824.44;5047599;28;20111;-49
2021/10/15 09:33:05;;;;;;;12.77;8.50;;;;;;;10.10;86.02;99834.94;5046629;28;20037;-51
2021/10/15 09:35:31;;;;;;;11.70;7.72;;;;;;;9.88;86.63;99826.22;5047171;28;20024;-51
2021/10/15 09:38:01;;;;;;;12.35;8.27;;;;;;;9.81;88.53;99833.38;5047814;28;20025;-53
2021/10/15 09:40:37;;;;;;;11.40;8.02;;;;;;;9.98;87.79;99840.00;5048021;28;20496;-53
2021/10/15 09:43:06;;;;;;;60.10;38.35;;;;;;;9.85;88.48;99845.25;5048358;28;20481;-53
2021/10/15 09:45:41;;;;;;;56.85;34.92;;;;;;;9.91;88.67;99839.94;5048200;28;20028;-53
2021/10/15 09:48:20;;;;;;;17.73;11.90;;;;;;;9.83;88.44;99832.13;5048830;28;20031;-53
2021/10/15 09:50:46;;;;;;;14.88;8.00;;;;;;;9.81;88.96;99820.88;5048779;28;20489;-54
2021/10/15 09:53:12;;;;;;;11.50;7.78;;;;;;;9.81;89.20;99812.91;5047910;28;20029;-53
2021/10/15 09:55:39;;;;;;;10.73;7.57;;;;;;;9.73;89.55;99805.13;5049716;28;20036;-53
2021/10/15 09:58:13;;;;;;;9.93;6.82;;;;;;;9.87;88.95;99800.69;5050088;28;20024;-53
2021/10/15 10:00:39;;;;;;;10.38;6.88;;;;;;;9.83;89.11;99802.09;5048173;28;20025;-53
2021/10/15 10:03:04;;;;;;;10.02;6.75;;;;;;;10.08;88.29;99797.91;5049794;28;20017;-52
2021/10/15 10:05:30;;;;;;;11.45;6.68;;;;;;;10.21;88.06;99804.28;5050100;28;20013;-52
2021/10/15 10:07:56;;;;;;;13.02;8.50;;;;;;;10.08;88.31;99802.41;5049953;28;20465;-52
2021/10/15 10:10:34;;;;;;;18.88;10.90;;;;;;;10.19;89.02;99793.84;5049615;28;20492;-52
2021/10/15 10:13:00;;;;;;;12.35;8.00;;;;;;;10.31;89.37;99788.78;5049619;28;20543;-52
2021/10/15 10:15:28;;;;;;;10.30;7.13;;;;;;;10.24;89.03;99782.59;5049465;28;20033;-50
2021/10/15 10:18:17;;;;;;;11.25;7.30;;;;;;;10.45;88.63;99782.50;5049397;28;20025;-53
2021/10/15 10:21:03;;;;;;;12.50;7.85;;;;;;;10.56;87.84;99779.22;5048623;28;20032;-51
2021/10/15 10:23:33;;;;;;;11.32;7.28;;;;;;;10.66;88.45;99783.34;5047911;28;20536;-50
2021/10/15 10:26:00;;;;;;;13.88;8.07;;;;;;;10.60;88.25;99774.31;5047932;28;20032;-50
2021/10/15 10:28:26;;;;;;;131.45;69.30;;;;;;;10.73;87.03;99774.34;5049429;28;20040;-52
2021/10/15 10:30:56;;;;;;;20.35;12.20;;;;;;;10.68;87.10;99768.81;5047976;28;20064;-52
2021/10/15 10:33:23;;;;;;;13.95;9.18;;;;;;;10.72;88.50;99767.38;5049311;28;20029;-51
2021/10/15 10:35:49;;;;;;;12.70;8.32;;;;;;;10.76;85.67;99754.50;5049221;28;20031;-52
2021/10/15 10:38:23;;;;;;;10.95;7.45;;;;;;;10.65;87.58;99752.44;5049512;28;20025;-50
2021/10/15 10:41:00;;;;;;;9.63;7.10;;;;;;;10.61;88.51;99745.88;5049865;28;20033;-51
2021/10/15 10:43:30;;;;;;;9.43;6.80;;;;;;;10.61;87.51;99737.91;5049269;28;20048;-50
2021/10/15 10:46:14;;;;;;;10.85;7.43;;;;;;;10.64;88.04;99740.13;5048932;28;20028;-49
2021/10/15 10:48:49;;;;;;;11.40;7.20;;;;;;;10.53;87.60;99741.59;5048962;28;20123;-49
2021/10/15 10:51:27;;;;;;;56.97;36.45;;;;;;;10.62;88.20;99731.53;5049212;28;20024;-51
2021/10/15 10:54:03;;;;;;;29.88;20.08;;;;;;;10.66;87.87;99735.44;5048936;28;20121;-51
2021/10/15 10:56:49;;;;;;;13.27;9.05;;;;;;;10.54;88.37;99737.88;5050373;28;20481;-52
2021/10/15 10:59:18;;;;;;;12.02;8.30;;;;;;;10.68;87.12;99738.69;5052761;28;20029;-52
2021/10/15 11:01:44;;;;;;;11.93;8.50;;;;;;;10.69;87.51;99713.75;5053144;28;20060;-51
2021/10/15 11:04:24;;;;;;;12.35;8.50;;;;;;;10.71;86.93;99709.84;5052639;28;20036;-51
2021/10/15 11:07:03;;;;;;;11.52;8.00;;;;;;;10.68;88.28;99704.09;5053023;28;20055;-51
2021/10/15 11:09:36;;;;;;;11.13;7.18;;;;;;;10.68;88.02;99706.75;5052691;28;20052;-49
2021/10/15 11:12:02;;;;;;;8.60;6.85;;;;;;;10.69;86.42;99692.44;5052609;28;20024;-52
2021/10/15 11:15:04;;;;;;;9.18;6.80;;;;;;;10.60;86.97;99691.00;5052583;28;20104;-50
2021/10/15 11:17:30;;;;;;;10.93;7.32;;;;;;;10.45;89.29;99684.06;5052469;28;20037;-52
2021/10/15 11:20:12;;;;;;;10.45;7.70;;;;;;;10.50;88.52;99678.13;5052257;28;20037;-53
2021/10/15 11:22:42;;;;;;;8.98;6.72;;;;;;;10.42;89.68;99676.47;5052564;28;20020;-49
2021/10/15 11:25:11;;;;;;;9.93;7.53;;;;;;;10.57;88.75;99674.44;5052391;28;20105;-50
2021/10/15 11:27:37;;;;;;;10.18;8.10;;;;;;;10.76;88.17;99677.31;5052759;28;20037;-52
2021/10/15 11:30:04;;;;;;;11.15;7.90;;;;;;;10.75;88.55;99680.97;5052371;28;20576;-52
2021/10/15 11:32:43;;;;;;;9.95;7.45;;;;;;;10.59;88.84;99681.41;5051789;28;20061;-51
2021/10/15 11:35:17;;;;;;;11.43;8.60;;;;;;;10.71;89.32;99677.09;5051077;28;20079;-51
2021/10/15 11:38:13;;;;;;;10.95;7.78;;;;;;;10.83;88.13;99655.97;5051216;28;20025;-51
2021/10/15 11:40:42;;;;;;;10.10;8.13;;;;;;;10.73;88.17;99643.91;5052383;28;20107;-50
2021/10/15 11:43:16;;;;;;;10.07;7.70;;;;;;;10.85;87.71;99645.94;5052295;28;20086;-51
2021/10/15 11:45:43;;;;;;;10.63;7.57;;;;;;;10.82;88.37;99638.41;5052085;28;20401;-52
2021/10/15 11:48:11;;;;;;;10.65;8.13;;;;;;;10.66;88.68;99621.84;5052041;28;20044;-50
2021/10/15 11:50:38;;;;;;;11.68;8.30;;;;;;;10.69;89.61;99616.06;5052043;28;20442;-52